Terminal Aerodrome Forecast
Issued by NWS Topeka, KS

Home | Current Version | Previous Version | Text Only | Print | Product List | Glossary On
Versions: 1 2 3 4 5 6 7 8 9 10 11 12 13 14 15
000
FTUS43 KTOP 281100
TAFTOP
TAF
KTOP 281132Z 2812/2912 22003KT P6SM SKC
     FM281800 19007KT P6SM FEW200
     FM282300 14002KT P6SM SCT150=

USA.gov is the U.S. government's official web portal to all federal, state and local government web resources and services.